DK-0029 weather

Sulkendrup Flyveplads
Denmark

Public forecast

Using degrees Celsius for public forecast. Weather courtesy of forecast.io.

Closest aviation weather report (METAR) to Sulkendrup Flyveplads

Closest report is Odense Airport, 17.5 nm (32.4 km) NW. Retrieved 2020/04/09 13:50 UTC (16 minutes ago):

EKOD 091350Z 30013KT 270V340 CAVOK 12/M00 Q1025

Closest aviation forecast (TAF) to Sulkendrup Flyveplads

Forecast is more than 12 hours old.

Closest forecast is S√łnderborg Airport, 37.0 nm (68.6 km) WSW. Retrieved 2016/01/27 09:03 UTC (4 years ago):

TAF TAF EKSB 270856Z 2709/2721 23022KT 5000 -RA BR BKN008 TEMPO 2709/2721 24025G40KT 2000 RADZ BKN004